sensor_id;sensor_type;location;lat;lon;timestamp;P1;durP1;ratioP1;P2;durP2;ratioP2
1204;SDS011;592;48.764;9.174;2022-12-15T00:00:18;44.40;;;23.80;;
1204;SDS011;592;48.764;9.174;2022-12-15T00:03:04;39.17;;;23.60;;
1204;SDS011;592;48.764;9.174;2022-12-15T00:05:49;45.17;;;24.50;;
1204;SDS011;592;48.764;9.174;2022-12-15T00:08:33;40.80;;;22.60;;
1204;SDS011;592;48.764;9.174;2022-12-15T00:11:17;40.80;;;23.07;;
1204;SDS011;592;48.764;9.174;2022-12-15T00:14:02;41.43;;;22.47;;
1204;SDS011;592;48.764;9.174;2022-12-15T00:16:46;41.50;;;22.03;;
1204;SDS011;592;48.764;9.174;2022-12-15T00:19:32;44.80;;;23.90;;
1204;SDS011;592;48.764;9.174;2022-12-15T00:22:16;35.73;;;21.97;;
1204;SDS011;592;48.764;9.174;2022-12-15T00:25:00;42.30;;;22.80;;
1204;SDS011;592;48.764;9.174;2022-12-15T00:27:44;43.87;;;23.30;;
1204;SDS011;592;48.764;9.174;2022-12-15T00:30:28;40.90;;;21.93;;
1204;SDS011;592;48.764;9.174;2022-12-15T00:33:12;41.50;;;22.70;;
1204;SDS011;592;48.764;9.174;2022-12-15T00:35:58;38.87;;;22.20;;
1204;SDS011;592;48.764;9.174;2022-12-15T00:38:42;42.70;;;21.40;;
1204;SDS011;592;48.764;9.174;2022-12-15T00:41:10;36.97;;;20.90;;
1204;SDS011;592;48.764;9.174;2022-12-15T00:43:37;43.63;;;22.97;;
1204;SDS011;592;48.764;9.174;2022-12-15T00:46:04;39.00;;;21.83;;
1204;SDS011;592;48.764;9.174;2022-12-15T00:48:49;39.27;;;21.90;;
1204;SDS011;592;48.764;9.174;2022-12-15T00:51:18;46.30;;;25.03;;
1204;SDS011;592;48.764;9.174;2022-12-15T00:53:44;38.93;;;22.40;;
1204;SDS011;592;48.764;9.174;2022-12-15T00:56:29;49.63;;;25.50;;
1204;SDS011;592;48.764;9.174;2022-12-15T00:59:14;41.87;;;23.70;;
1204;SDS011;592;48.764;9.174;2022-12-15T01:01:59;51.60;;;27.57;;
1204;SDS011;592;48.764;9.174;2022-12-15T01:04:44;54.00;;;28.87;;
1204;SDS011;592;48.764;9.174;2022-12-15T01:07:29;42.53;;;23.40;;
1204;SDS011;592;48.764;9.174;2022-12-15T01:10:14;44.60;;;26.73;;
1204;SDS011;592;48.764;9.174;2022-12-15T01:12:58;46.00;;;25.53;;
1204;SDS011;592;48.764;9.174;2022-12-15T01:15:42;54.17;;;29.97;;
1204;SDS011;592;48.764;9.174;2022-12-15T01:18:27;46.50;;;25.83;;
1204;SDS011;592;48.764;9.174;2022-12-15T01:21:11;49.93;;;28.10;;
1204;SDS011;592;48.764;9.174;2022-12-15T01:23:39;55.70;;;29.03;;
1204;SDS011;592;48.764;9.174;2022-12-15T01:26:07;55.87;;;29.37;;
1204;SDS011;592;48.764;9.174;2022-12-15T01:28:33;53.90;;;29.07;;
1204;SDS011;592;48.764;9.174;2022-12-15T01:31:00;54.20;;;29.93;;
1204;SDS011;592;48.764;9.174;2022-12-15T01:33:33;46.97;;;26.80;;
1204;SDS011;592;48.764;9.174;2022-12-15T01:36:00;50.93;;;28.57;;
1204;SDS011;592;48.764;9.174;2022-12-15T01:38:27;54.47;;;28.17;;
1204;SDS011;592;48.764;9.174;2022-12-15T01:40:56;53.53;;;27.90;;
1204;SDS011;592;48.764;9.174;2022-12-15T01:43:26;48.10;;;27.30;;
1204;SDS011;592;48.764;9.174;2022-12-15T01:45:56;52.00;;;28.00;;
1204;SDS011;592;48.764;9.174;2022-12-15T01:48:37;47.83;;;27.07;;
1204;SDS011;592;48.764;9.174;2022-12-15T01:51:09;47.00;;;25.30;;
1204;SDS011;592;48.764;9.174;2022-12-15T01:53:42;49.37;;;25.67;;
1204;SDS011;592;48.764;9.174;2022-12-15T01:56:15;49.80;;;25.30;;
1204;SDS011;592;48.764;9.174;2022-12-15T01:58:42;52.47;;;26.50;;
1204;SDS011;592;48.764;9.174;2022-12-15T02:01:13;49.43;;;27.27;;
1204;SDS011;592;48.764;9.174;2022-12-15T02:03:41;49.03;;;26.10;;
1204;SDS011;592;48.764;9.174;2022-12-15T02:06:09;54.77;;;27.23;;
1204;SDS011;592;48.764;9.174;2022-12-15T02:08:37;54.37;;;28.23;;
1204;SDS011;592;48.764;9.174;2022-12-15T02:11:11;55.03;;;26.77;;
1204;SDS011;592;48.764;9.174;2022-12-15T02:13:59;49.53;;;26.70;;
1204;SDS011;592;48.764;9.174;2022-12-15T02:16:30;54.83;;;26.50;;
1204;SDS011;592;48.764;9.174;2022-12-15T02:19:11;48.30;;;25.03;;
1204;SDS011;592;48.764;9.174;2022-12-15T02:21:55;60.37;;;25.97;;
1204;SDS011;592;48.764;9.174;2022-12-15T02:24:50;50.20;;;26.30;;
1204;SDS011;592;48.764;9.174;2022-12-15T02:27:36;55.23;;;25.90;;
1204;SDS011;592;48.764;9.174;2022-12-15T02:30:16;49.33;;;26.30;;
1204;SDS011;592;48.764;9.174;2022-12-15T02:32:49;52.17;;;27.30;;
1204;SDS011;592;48.764;9.174;2022-12-15T02:35:27;58.60;;;27.80;;
1204;SDS011;592;48.764;9.174;2022-12-15T02:38:01;52.43;;;27.73;;
1204;SDS011;592;48.764;9.174;2022-12-15T02:40:29;47.93;;;24.10;;
1204;SDS011;592;48.764;9.174;2022-12-15T02:42:55;42.07;;;23.87;;
1204;SDS011;592;48.764;9.174;2022-12-15T02:45:31;48.00;;;24.57;;
1204;SDS011;592;48.764;9.174;2022-12-15T02:48:03;47.63;;;24.60;;
1204;SDS011;592;48.764;9.174;2022-12-15T02:50:41;49.47;;;25.73;;
1204;SDS011;592;48.764;9.174;2022-12-15T02:53:21;47.30;;;24.87;;
1204;SDS011;592;48.764;9.174;2022-12-15T02:56:01;48.13;;;25.57;;
1204;SDS011;592;48.764;9.174;2022-12-15T02:58:35;48.57;;;26.00;;
1204;SDS011;592;48.764;9.174;2022-12-15T03:01:11;49.50;;;25.70;;
1204;SDS011;592;48.764;9.174;2022-12-15T03:03:41;51.50;;;25.70;;
1204;SDS011;592;48.764;9.174;2022-12-15T03:06:10;51.90;;;24.40;;
1204;SDS011;592;48.764;9.174;2022-12-15T03:08:37;53.57;;;26.33;;
1204;SDS011;592;48.764;9.174;2022-12-15T03:11:03;53.37;;;29.30;;
1204;SDS011;592;48.764;9.174;2022-12-15T03:13:30;54.60;;;27.90;;
1204;SDS011;592;48.764;9.174;2022-12-15T03:15:58;53.90;;;27.63;;
1204;SDS011;592;48.764;9.174;2022-12-15T03:18:27;52.53;;;28.80;;
1204;SDS011;592;48.764;9.174;2022-12-15T03:20:53;54.53;;;27.83;;
1204;SDS011;592;48.764;9.174;2022-12-15T03:23:20;57.93;;;28.00;;
1204;SDS011;592;48.764;9.174;2022-12-15T03:25:47;55.43;;;29.03;;
1204;SDS011;592;48.764;9.174;2022-12-15T03:28:14;52.60;;;27.93;;
1204;SDS011;592;48.764;9.174;2022-12-15T03:30:41;52.50;;;27.33;;
1204;SDS011;592;48.764;9.174;2022-12-15T03:33:08;54.50;;;27.10;;
1204;SDS011;592;48.764;9.174;2022-12-15T03:35:36;59.13;;;28.60;;
1204;SDS011;592;48.764;9.174;2022-12-15T03:38:02;52.53;;;28.80;;
1204;SDS011;592;48.764;9.174;2022-12-15T03:40:29;57.20;;;29.77;;
1204;SDS011;592;48.764;9.174;2022-12-15T03:42:56;53.00;;;27.10;;
1204;SDS011;592;48.764;9.174;2022-12-15T03:45:24;53.77;;;27.30;;
1204;SDS011;592;48.764;9.174;2022-12-15T03:47:51;52.57;;;28.33;;
1204;SDS011;592;48.764;9.174;2022-12-15T03:50:20;50.70;;;26.53;;
1204;SDS011;592;48.764;9.174;2022-12-15T03:52:51;50.17;;;26.70;;
1204;SDS011;592;48.764;9.174;2022-12-15T03:55:19;50.87;;;28.13;;
1204;SDS011;592;48.764;9.174;2022-12-15T03:57:46;48.00;;;24.73;;
1204;SDS011;592;48.764;9.174;2022-12-15T04:00:14;53.33;;;28.20;;
1204;SDS011;592;48.764;9.174;2022-12-15T04:02:42;53.23;;;24.87;;
1204;SDS011;592;48.764;9.174;2022-12-15T04:05:11;49.10;;;26.40;;
1204;SDS011;592;48.764;9.174;2022-12-15T04:07:39;48.47;;;26.23;;
1204;SDS011;592;48.764;9.174;2022-12-15T04:10:08;51.43;;;26.07;;
1204;SDS011;592;48.764;9.174;2022-12-15T04:12:35;48.63;;;25.03;;
1204;SDS011;592;48.764;9.174;2022-12-15T04:15:04;51.83;;;26.53;;
1204;SDS011;592;48.764;9.174;2022-12-15T04:17:32;47.90;;;24.30;;
1204;SDS011;592;48.764;9.174;2022-12-15T04:19:59;48.27;;;24.17;;
1204;SDS011;592;48.764;9.174;2022-12-15T04:22:35;46.10;;;24.23;;
1204;SDS011;592;48.764;9.174;2022-12-15T04:25:03;51.30;;;25.87;;
1204;SDS011;592;48.764;9.174;2022-12-15T04:27:50;45.63;;;23.80;;
1204;SDS011;592;48.764;9.174;2022-12-15T04:30:34;46.90;;;24.93;;
1204;SDS011;592;48.764;9.174;2022-12-15T04:33:19;47.03;;;23.73;;
1204;SDS011;592;48.764;9.174;2022-12-15T04:36:04;49.20;;;25.77;;
1204;SDS011;592;48.764;9.174;2022-12-15T04:38:49;47.63;;;24.27;;
1204;SDS011;592;48.764;9.174;2022-12-15T04:41:33;48.07;;;24.80;;
1204;SDS011;592;48.764;9.174;2022-12-15T04:44:19;48.67;;;25.17;;
1204;SDS011;592;48.764;9.174;2022-12-15T04:47:04;45.27;;;25.67;;
1204;SDS011;592;48.764;9.174;2022-12-15T04:49:48;53.07;;;26.07;;
1204;SDS011;592;48.764;9.174;2022-12-15T04:52:32;49.80;;;25.30;;
1204;SDS011;592;48.764;9.174;2022-12-15T04:55:16;50.67;;;25.07;;
1204;SDS011;592;48.764;9.174;2022-12-15T04:58:04;52.83;;;26.60;;
1204;SDS011;592;48.764;9.174;2022-12-15T05:00:51;50.87;;;26.20;;
1204;SDS011;592;48.764;9.174;2022-12-15T05:03:35;48.27;;;26.03;;
1204;SDS011;592;48.764;9.174;2022-12-15T05:06:20;48.20;;;26.00;;
1204;SDS011;592;48.764;9.174;2022-12-15T05:09:04;52.10;;;27.00;;
1204;SDS011;592;48.764;9.174;2022-12-15T05:11:49;44.77;;;24.60;;
1204;SDS011;592;48.764;9.174;2022-12-15T05:14:33;51.20;;;26.40;;
1204;SDS011;592;48.764;9.174;2022-12-15T05:17:19;50.80;;;24.53;;
1204;SDS011;592;48.764;9.174;2022-12-15T05:20:03;50.03;;;23.97;;
1204;SDS011;592;48.764;9.174;2022-12-15T05:22:51;51.50;;;26.60;;
1204;SDS011;592;48.764;9.174;2022-12-15T05:25:36;51.93;;;27.93;;
1204;SDS011;592;48.764;9.174;2022-12-15T05:28:20;48.50;;;26.40;;
1204;SDS011;592;48.764;9.174;2022-12-15T05:31:04;51.97;;;26.00;;
1204;SDS011;592;48.764;9.174;2022-12-15T05:33:51;49.37;;;24.90;;
1204;SDS011;592;48.764;9.174;2022-12-15T05:36:18;50.77;;;27.97;;
1204;SDS011;592;48.764;9.174;2022-12-15T05:38:46;55.80;;;26.27;;
1204;SDS011;592;48.764;9.174;2022-12-15T05:41:13;53.23;;;27.30;;
1204;SDS011;592;48.764;9.174;2022-12-15T05:43:40;50.87;;;27.00;;
1204;SDS011;592;48.764;9.174;2022-12-15T05:46:06;49.60;;;24.53;;
1204;SDS011;592;48.764;9.174;2022-12-15T05:48:33;50.33;;;26.43;;
1204;SDS011;592;48.764;9.174;2022-12-15T05:51:02;43.30;;;23.63;;
1204;SDS011;592;48.764;9.174;2022-12-15T05:53:30;48.60;;;26.23;;
1204;SDS011;592;48.764;9.174;2022-12-15T05:55:59;54.90;;;27.80;;
1204;SDS011;592;48.764;9.174;2022-12-15T05:58:26;44.80;;;24.90;;
1204;SDS011;592;48.764;9.174;2022-12-15T06:00:53;43.40;;;22.90;;
1204;SDS011;592;48.764;9.174;2022-12-15T06:03:20;46.70;;;23.77;;
1204;SDS011;592;48.764;9.174;2022-12-15T06:05:47;47.13;;;24.83;;
1204;SDS011;592;48.764;9.174;2022-12-15T06:08:15;46.17;;;24.23;;
1204;SDS011;592;48.764;9.174;2022-12-15T06:10:42;49.97;;;25.63;;
1204;SDS011;592;48.764;9.174;2022-12-15T06:13:09;56.97;;;26.67;;
1204;SDS011;592;48.764;9.174;2022-12-15T06:15:35;52.70;;;26.20;;
1204;SDS011;592;48.764;9.174;2022-12-15T06:18:02;52.43;;;25.30;;
1204;SDS011;592;48.764;9.174;2022-12-15T06:20:29;48.47;;;25.97;;
1204;SDS011;592;48.764;9.174;2022-12-15T06:22:56;48.27;;;24.90;;
1204;SDS011;592;48.764;9.174;2022-12-15T06:25:24;49.13;;;24.80;;
1204;SDS011;592;48.764;9.174;2022-12-15T06:27:50;47.23;;;26.13;;
1204;SDS011;592;48.764;9.174;2022-12-15T06:30:17;48.07;;;23.50;;
1204;SDS011;592;48.764;9.174;2022-12-15T06:32:44;49.33;;;25.27;;
1204;SDS011;592;48.764;9.174;2022-12-15T06:35:10;48.93;;;25.77;;
1204;SDS011;592;48.764;9.174;2022-12-15T06:37:37;48.70;;;26.50;;
1204;SDS011;592;48.764;9.174;2022-12-15T06:40:04;48.63;;;24.97;;
1204;SDS011;592;48.764;9.174;2022-12-15T06:42:33;52.93;;;25.03;;
1204;SDS011;592;48.764;9.174;2022-12-15T06:45:01;48.27;;;25.10;;
1204;SDS011;592;48.764;9.174;2022-12-15T06:47:28;49.63;;;24.20;;
1204;SDS011;592;48.764;9.174;2022-12-15T06:49:55;46.90;;;24.63;;
1204;SDS011;592;48.764;9.174;2022-12-15T06:52:21;43.57;;;23.37;;
1204;SDS011;592;48.764;9.174;2022-12-15T06:54:48;42.13;;;23.00;;
1204;SDS011;592;48.764;9.174;2022-12-15T06:57:15;46.50;;;23.80;;
1204;SDS011;592;48.764;9.174;2022-12-15T06:59:43;46.70;;;24.30;;
1204;SDS011;592;48.764;9.174;2022-12-15T07:02:12;47.40;;;24.80;;
1204;SDS011;592;48.764;9.174;2022-12-15T07:04:41;53.42;;;31.55;;
1204;SDS011;592;48.764;9.174;2022-12-15T07:07:08;49.47;;;27.27;;
1204;SDS011;592;48.764;9.174;2022-12-15T07:09:35;52.37;;;27.13;;
1204;SDS011;592;48.764;9.174;2022-12-15T07:12:02;47.43;;;25.10;;
1204;SDS011;592;48.764;9.174;2022-12-15T07:14:29;42.97;;;23.13;;
1204;SDS011;592;48.764;9.174;2022-12-15T07:16:57;43.60;;;24.53;;
1204;SDS011;592;48.764;9.174;2022-12-15T07:19:24;43.50;;;24.00;;
1204;SDS011;592;48.764;9.174;2022-12-15T07:21:51;44.67;;;25.20;;
1204;SDS011;592;48.764;9.174;2022-12-15T07:24:20;51.50;;;25.20;;
1204;SDS011;592;48.764;9.174;2022-12-15T07:26:47;46.23;;;24.70;;
1204;SDS011;592;48.764;9.174;2022-12-15T07:29:13;48.13;;;25.20;;
1204;SDS011;592;48.764;9.174;2022-12-15T07:31:40;42.50;;;24.20;;
1204;SDS011;592;48.764;9.174;2022-12-15T07:34:09;48.20;;;24.57;;
1204;SDS011;592;48.764;9.174;2022-12-15T07:36:35;47.97;;;25.47;;
1204;SDS011;592;48.764;9.174;2022-12-15T07:39:03;56.67;;;26.13;;
1204;SDS011;592;48.764;9.174;2022-12-15T07:41:30;43.83;;;23.10;;
1204;SDS011;592;48.764;9.174;2022-12-15T07:43:57;49.57;;;25.93;;
1204;SDS011;592;48.764;9.174;2022-12-15T07:46:24;43.57;;;22.87;;
1204;SDS011;592;48.764;9.174;2022-12-15T07:48:52;48.63;;;23.10;;
1204;SDS011;592;48.764;9.174;2022-12-15T07:51:21;45.30;;;24.27;;
1204;SDS011;592;48.764;9.174;2022-12-15T07:53:48;46.40;;;26.23;;
1204;SDS011;592;48.764;9.174;2022-12-15T07:56:15;45.73;;;23.90;;
1204;SDS011;592;48.764;9.174;2022-12-15T07:58:45;50.50;;;26.30;;
1204;SDS011;592;48.764;9.174;2022-12-15T08:01:13;47.83;;;25.73;;
1204;SDS011;592;48.764;9.174;2022-12-15T08:03:40;47.50;;;26.10;;
1204;SDS011;592;48.764;9.174;2022-12-15T08:06:08;56.47;;;26.00;;
1204;SDS011;592;48.764;9.174;2022-12-15T08:08:37;49.40;;;26.00;;
1204;SDS011;592;48.764;9.174;2022-12-15T08:11:04;50.20;;;25.70;;
1204;SDS011;592;48.764;9.174;2022-12-15T08:13:32;52.10;;;26.60;;
1204;SDS011;592;48.764;9.174;2022-12-15T08:15:59;52.40;;;25.87;;
1204;SDS011;592;48.764;9.174;2022-12-15T08:18:26;52.60;;;26.80;;
1204;SDS011;592;48.764;9.174;2022-12-15T08:20:53;55.20;;;27.23;;
1204;SDS011;592;48.764;9.174;2022-12-15T08:23:20;54.60;;;27.17;;
1204;SDS011;592;48.764;9.174;2022-12-15T08:25:48;53.57;;;26.97;;
1204;SDS011;592;48.764;9.174;2022-12-15T08:28:15;47.90;;;26.43;;
1204;SDS011;592;48.764;9.174;2022-12-15T08:30:41;51.50;;;28.03;;
1204;SDS011;592;48.764;9.174;2022-12-15T08:33:08;50.43;;;26.57;;
1204;SDS011;592;48.764;9.174;2022-12-15T08:35:37;50.27;;;26.40;;
1204;SDS011;592;48.764;9.174;2022-12-15T08:38:04;50.67;;;26.90;;
1204;SDS011;592;48.764;9.174;2022-12-15T08:40:30;49.13;;;26.83;;
1204;SDS011;592;48.764;9.174;2022-12-15T08:42:59;49.70;;;27.27;;
1204;SDS011;592;48.764;9.174;2022-12-15T08:45:25;52.63;;;25.83;;
1204;SDS011;592;48.764;9.174;2022-12-15T08:47:54;56.90;;;27.67;;
1204;SDS011;592;48.764;9.174;2022-12-15T08:50:20;49.10;;;24.17;;
1204;SDS011;592;48.764;9.174;2022-12-15T08:52:47;47.27;;;25.10;;
1204;SDS011;592;48.764;9.174;2022-12-15T08:55:14;48.70;;;23.77;;
1204;SDS011;592;48.764;9.174;2022-12-15T08:57:41;52.43;;;26.17;;
1204;SDS011;592;48.764;9.174;2022-12-15T09:00:09;52.87;;;25.00;;
1204;SDS011;592;48.764;9.174;2022-12-15T09:02:37;50.87;;;25.67;;
1204;SDS011;592;48.764;9.174;2022-12-15T09:05:04;54.27;;;27.40;;
1204;SDS011;592;48.764;9.174;2022-12-15T09:07:31;49.20;;;26.07;;
1204;SDS011;592;48.764;9.174;2022-12-15T09:09:58;50.60;;;27.60;;
1204;SDS011;592;48.764;9.174;2022-12-15T09:12:25;50.87;;;25.60;;
1204;SDS011;592;48.764;9.174;2022-12-15T09:14:52;52.30;;;24.60;;
1204;SDS011;592;48.764;9.174;2022-12-15T09:17:20;55.93;;;27.20;;
1204;SDS011;592;48.764;9.174;2022-12-15T09:19:47;48.97;;;25.87;;
1204;SDS011;592;48.764;9.174;2022-12-15T09:22:13;58.17;;;28.00;;
1204;SDS011;592;48.764;9.174;2022-12-15T09:24:40;49.00;;;26.17;;
1204;SDS011;592;48.764;9.174;2022-12-15T09:27:07;55.83;;;28.27;;
1204;SDS011;592;48.764;9.174;2022-12-15T09:29:34;54.27;;;26.83;;
1204;SDS011;592;48.764;9.174;2022-12-15T09:32:01;59.00;;;28.63;;
1204;SDS011;592;48.764;9.174;2022-12-15T09:34:29;51.30;;;27.00;;
1204;SDS011;592;48.764;9.174;2022-12-15T09:36:56;51.73;;;25.47;;
1204;SDS011;592;48.764;9.174;2022-12-15T09:39:22;48.40;;;24.40;;
1204;SDS011;592;48.764;9.174;2022-12-15T09:41:51;58.50;;;28.53;;
1204;SDS011;592;48.764;9.174;2022-12-15T10:07:40;50.83;;;23.97;;
1204;SDS011;592;48.764;9.174;2022-12-15T10:15:22;48.33;;;25.17;;
1204;SDS011;592;48.764;9.174;2022-12-15T10:17:53;48.17;;;23.90;;
1204;SDS011;592;48.764;9.174;2022-12-15T10:20:25;50.40;;;25.13;;
1204;SDS011;592;48.764;9.174;2022-12-15T10:23:11;55.83;;;24.63;;
1204;SDS011;592;48.764;9.174;2022-12-15T10:25:40;46.50;;;25.40;;
1204;SDS011;592;48.764;9.174;2022-12-15T10:28:20;52.63;;;23.50;;
1204;SDS011;592;48.764;9.174;2022-12-15T10:30:56;52.10;;;24.90;;
1204;SDS011;592;48.764;9.174;2022-12-15T10:33:27;42.90;;;23.20;;
1204;SDS011;592;48.764;9.174;2022-12-15T10:35:59;52.30;;;25.23;;
1204;SDS011;592;48.764;9.174;2022-12-15T10:38:31;53.87;;;27.17;;
1204;SDS011;592;48.764;9.174;2022-12-15T11:20:21;56.60;;;25.87;;
1204;SDS011;592;48.764;9.174;2022-12-15T11:22:56;46.80;;;24.87;;
1204;SDS011;592;48.764;9.174;2022-12-15T11:25:27;45.37;;;24.13;;
1204;SDS011;592;48.764;9.174;2022-12-15T15:36:26;45.67;;;22.60;;
1204;SDS011;592;48.764;9.174;2022-12-15T15:38:56;41.07;;;21.57;;
1204;SDS011;592;48.764;9.174;2022-12-15T15:41:25;45.93;;;23.27;;
1204;SDS011;592;48.764;9.174;2022-12-15T15:43:54;44.63;;;22.20;;
1204;SDS011;592;48.764;9.174;2022-12-15T15:46:23;41.83;;;22.10;;
1204;SDS011;592;48.764;9.174;2022-12-15T15:48:54;41.17;;;20.93;;
1204;SDS011;592;48.764;9.174;2022-12-15T15:51:22;43.67;;;22.87;;
1204;SDS011;592;48.764;9.174;2022-12-15T15:53:52;39.80;;;21.53;;
1204;SDS011;592;48.764;9.174;2022-12-15T15:56:20;42.53;;;22.00;;
1204;SDS011;592;48.764;9.174;2022-12-15T15:58:46;50.77;;;23.63;;
1204;SDS011;592;48.764;9.174;2022-12-15T16:01:13;38.87;;;21.17;;
1204;SDS011;592;48.764;9.174;2022-12-15T16:03:40;38.63;;;21.37;;
1204;SDS011;592;48.764;9.174;2022-12-15T16:06:08;37.07;;;22.17;;
1204;SDS011;592;48.764;9.174;2022-12-15T16:08:41;40.53;;;20.73;;
1204;SDS011;592;48.764;9.174;2022-12-15T16:11:11;43.57;;;20.77;;
1204;SDS011;592;48.764;9.174;2022-12-15T16:13:38;39.17;;;21.33;;
1204;SDS011;592;48.764;9.174;2022-12-15T16:16:05;37.60;;;18.90;;
1204;SDS011;592;48.764;9.174;2022-12-15T16:18:37;37.10;;;19.67;;
1204;SDS011;592;48.764;9.174;2022-12-15T16:21:05;39.77;;;19.90;;
1204;SDS011;592;48.764;9.174;2022-12-15T16:23:34;37.30;;;20.07;;
1204;SDS011;592;48.764;9.174;2022-12-15T16:26:02;40.00;;;19.87;;
1204;SDS011;592;48.764;9.174;2022-12-15T16:28:30;36.57;;;19.93;;
1204;SDS011;592;48.764;9.174;2022-12-15T16:30:57;36.80;;;19.03;;
1204;SDS011;592;48.764;9.174;2022-12-15T16:33:25;36.97;;;20.20;;
1204;SDS011;592;48.764;9.174;2022-12-15T16:35:52;35.30;;;18.23;;
1204;SDS011;592;48.764;9.174;2022-12-15T16:38:21;36.47;;;20.60;;
1204;SDS011;592;48.764;9.174;2022-12-15T16:40:50;36.33;;;21.17;;
1204;SDS011;592;48.764;9.174;2022-12-15T16:43:21;38.60;;;21.43;;
1204;SDS011;592;48.764;9.174;2022-12-15T16:45:53;36.03;;;19.87;;
1204;SDS011;592;48.764;9.174;2022-12-15T16:48:20;36.07;;;18.53;;
1204;SDS011;592;48.764;9.174;2022-12-15T16:50:48;41.40;;;21.37;;
1204;SDS011;592;48.764;9.174;2022-12-15T16:53:17;40.83;;;21.10;;
1204;SDS011;592;48.764;9.174;2022-12-15T16:55:45;36.30;;;18.30;;
1204;SDS011;592;48.764;9.174;2022-12-15T16:58:15;35.10;;;18.47;;
1204;SDS011;592;48.764;9.174;2022-12-15T17:00:43;35.90;;;18.80;;
1204;SDS011;592;48.764;9.174;2022-12-15T17:03:12;33.23;;;18.53;;
1204;SDS011;592;48.764;9.174;2022-12-15T17:05:39;37.60;;;19.30;;
1204;SDS011;592;48.764;9.174;2022-12-15T17:08:11;36.70;;;17.97;;
1204;SDS011;592;48.764;9.174;2022-12-15T17:10:42;30.27;;;17.13;;
1204;SDS011;592;48.764;9.174;2022-12-15T17:13:11;33.70;;;18.70;;
1204;SDS011;592;48.764;9.174;2022-12-15T17:15:46;33.40;;;18.37;;
1204;SDS011;592;48.764;9.174;2022-12-15T17:18:14;35.03;;;18.77;;
1204;SDS011;592;48.764;9.174;2022-12-15T17:20:41;34.77;;;19.87;;
1204;SDS011;592;48.764;9.174;2022-12-15T17:23:10;35.43;;;18.70;;
1204;SDS011;592;48.764;9.174;2022-12-15T17:25:41;32.47;;;18.37;;
1204;SDS011;592;48.764;9.174;2022-12-15T17:28:10;35.50;;;18.60;;
1204;SDS011;592;48.764;9.174;2022-12-15T17:30:40;34.10;;;17.97;;
1204;SDS011;592;48.764;9.174;2022-12-15T17:33:10;31.40;;;17.80;;
1204;SDS011;592;48.764;9.174;2022-12-15T17:35:43;35.20;;;18.57;;
1204;SDS011;592;48.764;9.174;2022-12-15T17:38:11;37.47;;;19.20;;
1204;SDS011;592;48.764;9.174;2022-12-15T17:40:40;33.67;;;19.50;;
1204;SDS011;592;48.764;9.174;2022-12-15T17:43:09;32.40;;;18.40;;
1204;SDS011;592;48.764;9.174;2022-12-15T17:45:37;33.30;;;18.43;;
1204;SDS011;592;48.764;9.174;2022-12-15T17:48:04;32.77;;;18.47;;
1204;SDS011;592;48.764;9.174;2022-12-15T17:50:33;35.50;;;17.33;;
1204;SDS011;592;48.764;9.174;2022-12-15T17:53:00;31.87;;;17.13;;
1204;SDS011;592;48.764;9.174;2022-12-15T17:55:30;37.17;;;19.23;;
1204;SDS011;592;48.764;9.174;2022-12-15T17:57:59;31.50;;;17.70;;
1204;SDS011;592;48.764;9.174;2022-12-15T18:00:27;33.10;;;18.57;;
1204;SDS011;592;48.764;9.174;2022-12-15T18:02:56;38.00;;;19.57;;
1204;SDS011;592;48.764;9.174;2022-12-15T18:05:25;32.07;;;17.53;;
1204;SDS011;592;48.764;9.174;2022-12-15T18:07:55;36.17;;;19.60;;
1204;SDS011;592;48.764;9.174;2022-12-15T18:10:25;33.10;;;19.50;;
1204;SDS011;592;48.764;9.174;2022-12-15T18:12:54;33.70;;;18.67;;
1204;SDS011;592;48.764;9.174;2022-12-15T18:15:22;34.13;;;18.20;;
1204;SDS011;592;48.764;9.174;2022-12-15T18:17:50;33.70;;;18.30;;
1204;SDS011;592;48.764;9.174;2022-12-15T18:20:17;36.20;;;19.33;;
1204;SDS011;592;48.764;9.174;2022-12-15T18:22:44;32.67;;;17.50;;
1204;SDS011;592;48.764;9.174;2022-12-15T18:25:15;34.13;;;18.90;;
1204;SDS011;592;48.764;9.174;2022-12-15T18:27:43;38.47;;;20.93;;
1204;SDS011;592;48.764;9.174;2022-12-15T18:30:17;40.83;;;22.03;;
1204;SDS011;592;48.764;9.174;2022-12-15T18:32:46;31.87;;;17.70;;
1204;SDS011;592;48.764;9.174;2022-12-15T18:35:14;35.93;;;18.70;;
1204;SDS011;592;48.764;9.174;2022-12-15T18:37:43;40.83;;;19.00;;
1204;SDS011;592;48.764;9.174;2022-12-15T18:40:12;34.60;;;19.97;;
1204;SDS011;592;48.764;9.174;2022-12-15T18:42:41;38.43;;;20.13;;
1204;SDS011;592;48.764;9.174;2022-12-15T18:45:15;35.27;;;18.87;;
1204;SDS011;592;48.764;9.174;2022-12-15T18:47:45;42.33;;;20.37;;
1204;SDS011;592;48.764;9.174;2022-12-15T18:50:13;34.87;;;19.23;;
1204;SDS011;592;48.764;9.174;2022-12-15T18:52:44;36.77;;;19.73;;
1204;SDS011;592;48.764;9.174;2022-12-15T18:55:16;38.87;;;20.87;;
1204;SDS011;592;48.764;9.174;2022-12-15T18:57:45;35.63;;;19.40;;
1204;SDS011;592;48.764;9.174;2022-12-15T19:00:17;34.00;;;17.63;;
1204;SDS011;592;48.764;9.174;2022-12-15T19:02:48;35.07;;;18.37;;
1204;SDS011;592;48.764;9.174;2022-12-15T19:05:16;40.20;;;19.90;;
1204;SDS011;592;48.764;9.174;2022-12-15T19:08:00;32.83;;;17.47;;
1204;SDS011;592;48.764;9.174;2022-12-15T19:10:35;35.13;;;20.60;;
1204;SDS011;592;48.764;9.174;2022-12-15T19:13:09;39.70;;;19.13;;
1204;SDS011;592;48.764;9.174;2022-12-15T19:15:37;40.13;;;21.60;;
1204;SDS011;592;48.764;9.174;2022-12-15T19:18:04;35.90;;;18.87;;
1204;SDS011;592;48.764;9.174;2022-12-15T19:20:49;35.10;;;19.90;;
1204;SDS011;592;48.764;9.174;2022-12-15T19:23:33;37.10;;;19.47;;
1204;SDS011;592;48.764;9.174;2022-12-15T19:26:01;39.10;;;21.00;;
1204;SDS011;592;48.764;9.174;2022-12-15T19:28:28;39.73;;;21.37;;
1204;SDS011;592;48.764;9.174;2022-12-15T19:30:54;42.90;;;22.17;;
1204;SDS011;592;48.764;9.174;2022-12-15T19:33:21;39.20;;;21.07;;
1204;SDS011;592;48.764;9.174;2022-12-15T19:35:49;43.50;;;23.17;;
1204;SDS011;592;48.764;9.174;2022-12-15T19:38:23;39.30;;;20.87;;
1204;SDS011;592;48.764;9.174;2022-12-15T19:40:52;41.97;;;21.23;;
1204;SDS011;592;48.764;9.174;2022-12-15T19:43:21;39.17;;;19.20;;
1204;SDS011;592;48.764;9.174;2022-12-15T19:45:49;40.67;;;21.50;;
1204;SDS011;592;48.764;9.174;2022-12-15T19:48:16;36.63;;;20.70;;
1204;SDS011;592;48.764;9.174;2022-12-15T19:50:44;33.47;;;19.50;;
1204;SDS011;592;48.764;9.174;2022-12-15T19:53:16;37.43;;;19.53;;
1204;SDS011;592;48.764;9.174;2022-12-15T19:55:48;37.30;;;19.70;;
1204;SDS011;592;48.764;9.174;2022-12-15T19:58:27;40.90;;;21.23;;
1204;SDS011;592;48.764;9.174;2022-12-15T20:00:55;37.40;;;19.87;;
1204;SDS011;592;48.764;9.174;2022-12-15T20:03:23;43.60;;;21.03;;
1204;SDS011;592;48.764;9.174;2022-12-15T20:05:51;37.57;;;19.27;;
1204;SDS011;592;48.764;9.174;2022-12-15T20:08:20;36.93;;;20.17;;
1204;SDS011;592;48.764;9.174;2022-12-15T20:10:48;33.80;;;18.30;;
1204;SDS011;592;48.764;9.174;2022-12-15T20:13:16;36.00;;;19.40;;
1204;SDS011;592;48.764;9.174;2022-12-15T20:15:44;33.57;;;19.80;;
1204;SDS011;592;48.764;9.174;2022-12-15T20:18:11;32.87;;;18.53;;
1204;SDS011;592;48.764;9.174;2022-12-15T20:20:38;39.08;;;22.65;;
1204;SDS011;592;48.764;9.174;2022-12-15T20:23:09;38.00;;;20.47;;
1204;SDS011;592;48.764;9.174;2022-12-15T20:25:41;39.00;;;20.07;;
1204;SDS011;592;48.764;9.174;2022-12-15T20:28:15;39.67;;;21.17;;
1204;SDS011;592;48.764;9.174;2022-12-15T20:30:46;39.83;;;22.27;;
1204;SDS011;592;48.764;9.174;2022-12-15T20:33:13;39.50;;;21.17;;
1204;SDS011;592;48.764;9.174;2022-12-15T20:35:41;41.80;;;21.30;;
1204;SDS011;592;48.764;9.174;2022-12-15T20:38:13;34.37;;;20.80;;
1204;SDS011;592;48.764;9.174;2022-12-15T20:40:44;36.97;;;20.77;;